WS98 weather

St Joseph's Hospital Heliport
Marshfield, Wisconsin, United States

Public forecast

Using degrees Fahrenheit for public forecast. Weather courtesy of forecast.io.

METAR (pilot weather report)

Closest report is Marshfield Municipal Airport, 2.5 nm (4.5 km) S. Retrieved 2019/08/24 07:54 UTC (48 minutes ago):

KMFI 240754Z AUTO 00000KT 10SM CLR 11/09 A3030 RMK AO2 SLP262 T01110089

TAF (pilot weather forecast)

Closest forecast is Central Wisconsin Airport, 22.7 nm (42.0 km) ENE. Retrieved 2019/08/24 06:22 UTC (2 hours ago):

TAF KCWA 240520Z 2406/2506 10003KT P6SM SKC FM241500 13007KT P6SM SCT035 FM250100 12003KT P6SM SKC AMD LTD TO CLD VIS AND WIND TIL 241100